Time;durP1;ratioP1;P1;durP2;ratioP2;P2;SDS_P1;SDS_P2;PMS_P1;PMS_P2;Temp;Humidity;BMP_temperature;BMP_pressure;BME280_temperature;BME280_humidity;BME280_pressure;Samples;Min_cycle;Max_cycle;Signal;HPM_P1;HPM_P2
2022/09/14 00:02:15;;;;;;;2.60;2.10;;;21.10;99.90;;;;;;5093663;28;20020;-79
2022/09/14 00:04:41;;;;;;;3.08;2.80;;;20.70;99.90;;;;;;5093823;28;20066;-78
2022/09/14 00:07:07;;;;;;;3.35;2.90;;;20.90;99.90;;;;;;5093494;28;20116;-78
2022/09/14 00:09:33;;;;;;;3.05;2.85;;;21.10;99.90;;;;;;5093032;28;20032;-78
2022/09/14 00:11:58;;;;;;;5.35;3.30;;;21.10;99.90;;;;;;5093388;28;20024;-79
2022/09/14 00:14:24;;;;;;;4.38;3.13;;;21.10;99.90;;;;;;5093292;28;20024;-78
2022/09/14 00:16:50;;;;;;;3.50;3.20;;;21.00;99.90;;;;;;5093245;28;20452;-78
2022/09/14 00:19:24;;;;;;;6.85;3.83;;;21.10;99.90;;;;;;5093620;28;20061;-78
2022/09/14 00:21:53;;;;;;;5.00;3.78;;;21.10;99.90;;;;;;5092701;28;20085;-79
2022/09/14 00:24:20;;;;;;;4.43;3.80;;;20.90;99.90;;;;;;5092642;28;20012;-79
2022/09/14 00:26:46;;;;;;;4.32;3.58;;;20.90;99.90;;;;;;5093131;28;20349;-78
2022/09/14 00:29:12;;;;;;;6.53;4.40;;;20.90;99.90;;;;;;5093325;28;20024;-78
2022/09/14 00:31:38;;;;;;;6.60;4.22;;;21.20;99.90;;;;;;5093087;28;20040;-79
2022/09/14 00:34:06;;;;;;;6.72;4.43;;;21.20;99.90;;;;;;5093006;28;20035;-78
2022/09/14 00:36:36;;;;;;;5.40;3.95;;;21.00;99.90;;;;;;5093328;28;20052;-78
2022/09/14 00:39:01;;;;;;;4.13;3.70;;;21.00;99.90;;;;;;5092599;28;20103;-79
2022/09/14 00:41:32;;;;;;;6.10;4.43;;;20.90;99.90;;;;;;5092674;28;20413;-78
2022/09/14 00:44:06;;;;;;;4.90;4.00;;;20.90;99.90;;;;;;5092793;28;20429;-79
2022/09/14 00:46:37;;;;;;;5.78;4.60;;;21.00;99.90;;;;;;5093253;28;20114;-79
2022/09/14 00:49:07;;;;;;;4.90;4.07;;;21.10;99.90;;;;;;5092750;28;20056;-78
2022/09/14 00:51:34;;;;;;;8.95;4.00;;;21.20;99.90;;;;;;5092424;28;20028;-78
2022/09/14 00:54:02;;;;;;;4.60;4.10;;;21.20;99.90;;;;;;5092517;28;20028;-78
2022/09/14 00:56:28;;;;;;;5.85;3.72;;;21.20;99.90;;;;;;5092990;28;20020;-78
2022/09/14 00:58:56;;;;;;;5.65;4.00;;;21.20;99.90;;;;;;5092288;28;20024;-79
2022/09/14 01:01:24;;;;;;;4.88;3.67;;;21.40;99.90;;;;;;5092576;28;20066;-79
2022/09/14 01:03:49;;;;;;;5.10;4.10;;;21.20;99.90;;;;;;5092461;28;20063;-79
2022/09/14 01:06:34;;;;;;;6.15;4.20;;;21.20;99.90;;;;;;5092298;28;20558;-79
2022/09/14 01:09:19;;;;;;;5.40;4.80;;;21.30;99.90;;;;;;5092850;28;20020;-78
2022/09/14 01:11:57;;;;;;;4.78;4.35;;;21.20;99.90;;;;;;5092596;28;20031;-79
2022/09/14 01:14:49;;;;;;;4.65;4.25;;;21.20;99.90;;;;;;5092671;28;20016;-79
2022/09/14 01:17:28;;;;;;;6.82;4.50;;;21.30;99.90;;;;;;5092142;28;20496;-79
2022/09/14 01:20:21;;;;;;;5.38;3.95;;;21.50;99.90;;;;;;5092337;28;20016;-79
2022/09/14 01:23:09;;;;;;;6.15;4.80;;;21.60;99.90;;;;;;5092363;28;20421;-79
2022/09/14 01:25:50;;;;;;;6.05;4.93;;;21.70;99.90;;;;;;5092126;28;20055;-79
2022/09/14 01:28:49;;;;;;;6.53;5.18;;;21.80;99.90;;;;;;5092662;28;20043;-79
2022/09/14 01:31:34;;;;;;;6.22;4.75;;;21.80;99.90;;;;;;4989963;28;20042;-79
2022/09/14 01:34:13;;;;;;;8.60;4.88;;;21.90;99.90;;;;;;4990625;28;20034;-79
2022/09/14 01:36:43;;;;;;;7.68;4.47;;;21.90;99.90;;;;;;4990157;28;20118;-79
2022/09/14 01:39:10;;;;;;;7.70;4.47;;;22.00;99.90;;;;;;4990041;28;20054;-79
2022/09/14 01:41:38;;;;;;;7.38;4.47;;;21.90;99.90;;;;;;4990457;28;20038;-79
2022/09/14 01:44:18;;;;;;;6.20;4.40;;;22.00;99.90;;;;;;4990672;28;20035;-79
2022/09/14 01:46:59;;;;;;;6.38;4.40;;;22.00;99.90;;;;;;4990786;28;20031;-79
2022/09/14 01:49:33;;;;;;;6.57;4.80;;;22.00;99.90;;;;;;4990252;28;20031;-79
2022/09/14 01:52:11;;;;;;;8.70;4.60;;;22.00;99.90;;;;;;4990346;28;20113;-79
2022/09/14 01:54:41;;;;;;;6.85;4.70;;;21.90;99.90;;;;;;4990321;28;20557;-79
2022/09/14 01:57:23;;;;;;;7.63;4.30;;;22.10;99.90;;;;;;4990310;28;20104;-79
2022/09/14 01:59:53;;;;;;;7.57;4.43;;;22.10;99.90;;;;;;4990425;28;20450;-79
2022/09/14 02:02:31;;;;;;;5.47;4.07;;;21.90;99.90;;;;;;4990704;28;20118;-79
2022/09/14 02:05:07;;;;;;;7.75;4.47;;;22.00;99.90;;;;;;4989644;28;20109;-79
2022/09/14 02:07:34;;;;;;;7.03;4.00;;;21.90;99.90;;;;;;5007424;28;20059;-80
2022/09/14 02:10:01;;;;;;;5.55;4.03;;;21.80;99.90;;;;;;5071727;28;20021;-79
2022/09/14 02:12:26;;;;;;;4.60;4.05;;;21.70;99.90;;;;;;5075100;28;20029;-78
2022/09/14 02:14:53;;;;;;;6.43;3.67;;;21.60;99.90;;;;;;5075625;28;20533;-79
2022/09/14 02:17:20;;;;;;;6.30;4.15;;;21.60;99.90;;;;;;5092339;28;20379;-79
2022/09/14 02:19:55;;;;;;;4.68;4.18;;;21.60;99.90;;;;;;5095302;28;20028;-79
2022/09/14 02:22:21;;;;;;;5.00;4.03;;;21.70;99.90;;;;;;5095558;28;20103;-80
2022/09/14 02:24:48;;;;;;;5.55;3.70;;;21.80;99.90;;;;;;5095463;28;20449;-79
2022/09/14 02:27:14;;;;;;;6.07;3.92;;;22.00;99.90;;;;;;5095751;28;20530;-79
2022/09/14 02:29:39;;;;;;;5.15;3.08;;;21.80;99.90;;;;;;5095246;28;20012;-79
2022/09/14 02:32:31;;;;;;;5.25;3.75;;;21.40;99.90;;;;;;5095233;28;20048;-79
2022/09/14 02:35:03;;;;;;;6.32;4.40;;;21.80;99.90;;;;;;5095004;28;20099;-79
2022/09/14 02:37:52;;;;;;;8.45;3.72;;;21.90;99.90;;;;;;5095266;28;20020;-79
2022/09/14 02:40:40;;;;;;;6.50;4.07;;;22.10;99.90;;;;;;5095195;28;20461;-79
2022/09/14 02:43:11;;;;;;;7.75;4.28;;;22.40;99.90;;;;;;5095509;28;20435;-79
2022/09/14 02:45:52;;;;;;;7.40;3.80;;;22.60;99.90;;;;;;5095046;28;20039;-79
2022/09/14 02:48:39;;;;;;;5.65;4.05;;;22.70;99.90;;;;;;5094974;28;20053;-79
2022/09/14 02:51:22;;;;;;;6.30;3.63;;;22.70;99.90;;;;;;5094962;28;20039;-78
2022/09/14 02:54:05;;;;;;;4.80;3.70;;;22.70;99.90;;;;;;5094924;28;20063;-79
2022/09/14 02:56:33;;;;;;;4.78;3.92;;;22.70;99.90;;;;;;5095270;28;20112;-79
2022/09/14 02:58:58;;;;;;;5.43;3.80;;;22.70;99.90;;;;;;5095056;28;20031;-79
2022/09/14 03:01:25;;;;;;;6.07;3.47;;;22.70;99.90;;;;;;5094910;28;20108;-79
2022/09/14 03:03:50;;;;;;;5.45;3.60;;;22.70;99.90;;;;;;5094457;28;20035;-79
2022/09/14 03:06:16;;;;;;;7.80;3.60;;;22.80;99.90;;;;;;5094584;28;20035;-78
2022/09/14 03:08:42;;;;;;;6.80;3.80;;;22.70;99.90;;;;;;5094803;28;20028;-79
2022/09/14 03:11:08;;;;;;;5.15;3.38;;;22.70;99.90;;;;;;5094684;28;20468;-79
2022/09/14 03:13:35;;;;;;;4.60;3.65;;;22.80;99.90;;;;;;5095042;28;20024;-78
2022/09/14 03:16:09;;;;;;;7.95;3.75;;;22.80;99.90;;;;;;5094448;28;20452;-79
2022/09/14 03:18:35;;;;;;;6.68;3.72;;;22.80;99.90;;;;;;5094450;28;20099;-78
2022/09/14 03:21:12;;;;;;;7.13;3.53;;;22.70;99.90;;;;;;5094396;28;20024;-79
2022/09/14 03:23:47;;;;;;;7.05;3.38;;;22.80;99.90;;;;;;5094185;28;20399;-79
2022/09/14 03:26:21;;;;;;;5.75;3.33;;;22.80;99.10;;;;;;5094766;28;20046;-79
2022/09/14 03:28:51;;;;;;;6.03;3.67;;;22.90;97.20;;;;;;5076494;28;20054;-79
2022/09/14 03:31:17;;;;;;;6.10;3.40;;;22.80;98.00;;;;;;5093659;28;20035;-79
2022/09/14 03:33:42;;;;;;;6.47;3.17;;;22.90;94.90;;;;;;5094407;28;20032;-79
2022/09/14 03:36:16;;;;;;;5.93;3.75;;;23.00;93.20;;;;;;5094127;28;20400;-79
2022/09/14 03:38:48;;;;;;;4.75;3.70;;;22.90;94.40;;;;;;5094145;28;20024;-79
2022/09/14 03:41:15;;;;;;;5.38;3.53;;;22.90;94.70;;;;;;5094110;28;20476;-79
2022/09/14 03:43:41;;;;;;;6.97;3.88;;;22.80;92.40;;;;;;5094145;28;20035;-79
2022/09/14 03:46:09;;;;;;;9.88;4.30;;;22.70;95.60;;;;;;5093705;28;20031;-79
2022/09/14 03:48:35;;;;;;;5.80;4.18;;;22.70;94.50;;;;;;5094448;28;20016;-79
2022/09/14 03:51:05;;;;;;;6.95;3.63;;;22.50;94.90;;;;;;5093893;28;20032;-79
2022/09/14 03:53:31;;;;;;;6.60;3.85;;;22.40;95.90;;;;;;5093928;28;20020;-79
2022/09/14 03:55:57;;;;;;;5.18;3.42;;;22.40;94.40;;;;;;5093964;28;20028;-79
2022/09/14 03:58:23;;;;;;;7.05;3.47;;;22.50;92.60;;;;;;5093890;28;20051;-79
2022/09/14 04:00:49;;;;;;;7.38;3.25;;;22.60;91.30;;;;;;5093753;28;20028;-79
2022/09/14 04:03:15;;;;;;;6.15;3.80;;;22.60;90.30;;;;;;5093670;28;20028;-78
2022/09/14 04:05:41;;;;;;;5.32;3.70;;;22.60;91.00;;;;;;5093429;28;20028;-79
2022/09/14 04:08:06;;;;;;;5.45;3.40;;;22.50;91.00;;;;;;5093620;28;20395;-79
2022/09/14 04:10:32;;;;;;;6.38;4.25;;;22.50;93.90;;;;;;5093479;28;20464;-79
2022/09/14 04:12:58;;;;;;;7.05;3.90;;;22.50;90.80;;;;;;5093760;28;20024;-78
2022/09/14 04:15:23;;;;;;;6.50;3.60;;;22.40;91.00;;;;;;5092749;28;20101;-78
2022/09/14 04:17:50;;;;;;;6.82;3.65;;;22.50;91.10;;;;;;5093664;28;20063;-79
2022/09/14 04:20:17;;;;;;;4.82;3.70;;;22.50;90.50;;;;;;5093273;28;20090;-78
2022/09/14 04:22:44;;;;;;;7.20;4.00;;;22.50;90.60;;;;;;5093410;28;20024;-79
2022/09/14 04:25:10;;;;;;;4.80;3.60;;;22.50;91.10;;;;;;5093078;28;20085;-78
2022/09/14 04:27:36;;;;;;;6.82;4.00;;;22.60;90.60;;;;;;5093151;28;20041;-78
2022/09/14 04:30:03;;;;;;;5.30;3.70;;;22.50;89.40;;;;;;5093038;28;20016;-78
2022/09/14 04:32:28;;;;;;;4.25;3.30;;;22.60;87.80;;;;;;5092797;28;20044;-78
2022/09/14 04:34:54;;;;;;;8.13;3.80;;;22.60;89.50;;;;;;5092153;28;20408;-78
2022/09/14 04:37:19;;;;;;;5.72;3.90;;;22.60;87.60;;;;;;5093076;28;20109;-79
2022/09/14 04:39:45;;;;;;;7.38;3.90;;;22.60;84.60;;;;;;5092976;28;20477;-78
2022/09/14 04:42:11;;;;;;;5.38;3.63;;;22.60;82.90;;;;;;5093184;28;20043;-78
2022/09/14 04:44:36;;;;;;;3.75;3.42;;;22.60;84.40;;;;;;5092526;28;20025;-79
2022/09/14 04:47:02;;;;;;;5.97;3.50;;;22.60;83.10;;;;;;5074503;28;20470;-78
2022/09/14 04:49:28;;;;;;;5.70;3.30;;;22.50;85.90;;;;;;5092646;28;20058;-78
2022/09/14 04:51:53;;;;;;;4.90;3.50;;;22.50;84.40;;;;;;5092873;28;20067;-78
2022/09/14 04:54:19;;;;;;;4.60;3.47;;;22.60;86.60;;;;;;5092843;28;20461;-78
2022/09/14 04:56:45;;;;;;;4.82;3.30;;;22.50;84.90;;;;;;5092748;28;20206;-78
2022/09/14 04:59:11;;;;;;;5.47;3.28;;;22.60;85.30;;;;;;5092337;28;20028;-79
2022/09/14 05:01:40;;;;;;;5.65;3.30;;;22.60;86.80;;;;;;5092472;28;20028;-79
2022/09/14 05:04:07;;;;;;;6.78;2.90;;;22.60;83.30;;;;;;5092621;28;20031;-79
2022/09/14 05:06:35;;;;;;;5.18;3.33;;;22.60;82.30;;;;;;5092835;28;20053;-79
2022/09/14 05:09:03;;;;;;;6.20;3.60;;;22.60;79.30;;;;;;5092498;28;20039;-79
2022/09/14 05:11:32;;;;;;;5.55;3.45;;;22.60;80.70;;;;;;5092533;28;20055;-79
2022/09/14 05:13:59;;;;;;;6.13;3.42;;;22.60;81.20;;;;;;5092300;28;20028;-79
2022/09/14 05:16:26;;;;;;;3.80;3.13;;;22.50;81.20;;;;;;5092525;28;20476;-78
2022/09/14 05:18:54;;;;;;;4.97;3.70;;;22.50;82.70;;;;;;5092213;28;20028;-79
2022/09/14 05:21:21;;;;;;;4.53;3.58;;;22.50;80.40;;;;;;5092383;28;20077;-79
2022/09/14 05:23:59;;;;;;;4.85;3.65;;;22.50;84.00;;;;;;5092672;28;20028;-79
2022/09/14 05:26:27;;;;;;;3.55;3.17;;;22.50;81.20;;;;;;5092223;28;20103;-78
2022/09/14 05:28:54;;;;;;;4.28;3.55;;;22.50;81.10;;;;;;5091831;28;20028;-79
2022/09/14 05:31:22;;;;;;;5.63;2.88;;;22.50;80.40;;;;;;5091643;28;20021;-78
2022/09/14 05:33:48;;;;;;;6.50;3.65;;;22.50;78.80;;;;;;5092120;28;20092;-78
2022/09/14 05:36:14;;;;;;;5.25;3.40;;;22.50;76.20;;;;;;5092197;28;20076;-78
2022/09/14 05:38:41;;;;;;;5.72;3.55;;;22.50;81.20;;;;;;5092129;28;20101;-79
2022/09/14 05:41:09;;;;;;;6.00;3.55;;;22.50;80.20;;;;;;5091270;28;20020;-80
2022/09/14 05:43:35;;;;;;;7.10;4.00;;;22.40;83.20;;;;;;5092154;28;20028;-81
2022/09/14 05:46:03;;;;;;;5.25;3.83;;;22.30;79.20;;;;;;5094536;28;20043;-81
2022/09/14 05:48:33;;;;;;;6.43;3.40;;;22.10;84.50;;;;;;5096537;28;20028;-81
2022/09/14 05:51:00;;;;;;;9.13;4.10;;;22.10;86.90;;;;;;5096200;28;20024;-82
2022/09/14 05:53:27;;;;;;;6.32;3.90;;;21.80;89.00;;;;;;5096061;28;20027;-80
2022/09/14 05:56:00;;;;;;;7.07;3.53;;;21.60;86.90;;;;;;5095811;28;20028;-80
2022/09/14 05:58:26;;;;;;;7.43;3.85;;;21.50;89.20;;;;;;5096513;28;20106;-80
2022/09/14 06:00:52;;;;;;;6.82;3.65;;;21.30;85.90;;;;;;5096180;28;20097;-80
2022/09/14 06:03:18;;;;;;;4.32;3.33;;;21.20;88.80;;;;;;5095893;28;20460;-80
2022/09/14 06:05:43;;;;;;;8.10;4.57;;;20.40;99.90;;;;;;5095786;28;20081;-80
2022/09/14 06:08:09;;;;;;;8.43;4.82;;;19.80;99.90;;;;;;5095349;28;20028;-81
2022/09/14 06:10:35;;;;;;;6.65;4.68;;;19.80;1.50;;;;;;5095436;28;20078;-80
2022/09/14 06:13:00;;;;;;;10.13;5.07;;;19.70;99.90;;;;;;5077891;28;20097;-80
2022/09/14 06:15:26;;;;;;;6.75;4.20;;;19.70;1.00;;;;;;5095389;28;20381;-80
2022/09/14 06:17:51;;;;;;;8.13;4.50;;;19.60;1.50;;;;;;5095939;28;20020;-80
2022/09/14 06:20:17;;;;;;;8.68;4.40;;;19.70;99.90;;;;;;5095315;28;20426;-80
2022/09/14 06:22:43;;;;;;;6.50;3.78;;;19.40;99.90;;;;;;5095580;28;20017;-80
2022/09/14 06:25:10;;;;;;;9.82;3.60;;;20.50;99.90;;;;;;5094559;28;20039;-77
2022/09/14 06:27:36;;;;;;;11.10;3.10;;;20.40;99.90;;;;;;5094443;28;20035;-79
2022/09/14 06:30:02;;;;;;;4.70;2.60;;;20.60;99.90;;;;;;5094854;28;20028;-78
2022/09/14 06:32:29;;;;;;;11.73;4.90;;;20.30;99.90;;;;;;5094721;28;20052;-78
2022/09/14 06:34:55;;;;;;;10.57;4.15;;;19.90;99.90;;;;;;5094889;28;20024;-80
2022/09/14 06:37:21;;;;;;;13.77;5.22;;;20.00;99.90;;;;;;5095102;28;20027;-77
2022/09/14 06:39:46;;;;;;;10.02;5.25;;;20.10;99.90;;;;;;5094597;28;20480;-79
2022/09/14 06:42:12;;;;;;;8.85;5.43;;;20.10;99.90;;;;;;5094655;28;20025;-78
2022/09/14 06:44:37;;;;;;;11.10;4.82;;;20.10;99.90;;;;;;5094214;28;20412;-78
2022/09/14 06:47:03;;;;;;;7.95;4.80;;;20.00;99.90;;;;;;5099545;28;20040;-79
2022/09/14 06:49:29;;;;;;;9.85;6.28;;;20.10;99.90;;;;;;5094831;28;20039;-78
2022/09/14 06:51:56;;;;;;;11.40;6.07;;;20.20;99.90;;;;;;5093758;28;20028;-78
2022/09/14 06:54:22;;;;;;;10.77;6.90;;;20.30;99.90;;;;;;5094581;28;20048;-78
2022/09/14 06:56:48;;;;;;;8.55;5.93;;;20.40;99.90;;;;;;5094230;28;20388;-78
2022/09/14 06:59:15;;;;;;;12.77;7.20;;;20.40;99.90;;;;;;5094221;28;20028;-78
2022/09/14 07:01:41;;;;;;;7.68;6.00;;;20.30;99.90;;;;;;5094326;28;20078;-78
2022/09/14 07:04:07;;;;;;;13.27;5.63;;;20.50;99.90;;;;;;5094363;28;20510;-78
2022/09/14 07:06:42;;;;;;;10.30;6.05;;;20.40;99.90;;;;;;5094601;28;20114;-78
2022/09/14 07:09:07;;;;;;;8.63;5.15;;;20.40;99.90;;;;;;5093877;28;20052;-78
2022/09/14 07:11:34;;;;;;;8.25;5.22;;;20.30;99.90;;;;;;5094748;28;20067;-78
2022/09/14 07:14:00;;;;;;;6.82;3.28;;;20.40;99.90;;;;;;5094120;28;20484;-77
2022/09/14 07:16:27;;;;;;;5.25;4.05;;;20.40;99.90;;;;;;5093992;28;20453;-77
2022/09/14 07:18:55;;;;;;;8.32;6.22;;;20.50;99.90;;;;;;5097958;28;20487;-78
2022/09/14 07:21:21;;;;;;;4.57;4.03;;;20.60;99.90;;;;;;5101448;28;20097;-78
2022/09/14 07:23:47;;;;;;;8.13;4.90;;;20.50;99.90;;;;;;5094035;28;20037;-78
2022/09/14 07:26:12;;;;;;;6.82;4.80;;;20.60;99.90;;;;;;5094116;28;20063;-78
2022/09/14 07:28:39;;;;;;;6.85;4.85;;;20.50;99.90;;;;;;5094127;28;20051;-78
2022/09/14 07:31:17;;;;;;;4.55;4.10;;;20.60;99.90;;;;;;5093772;28;20032;-77
2022/09/14 07:33:43;;;;;;;8.00;4.10;;;20.60;99.90;;;;;;5094131;28;20047;-77
2022/09/14 07:36:11;;;;;;;8.65;4.10;;;20.70;99.90;;;;;;5093848;28;20150;-77
2022/09/14 07:38:36;;;;;;;6.38;3.83;;;20.60;99.90;;;;;;5112402;28;20105;-82
2022/09/14 07:41:02;;;;;;;4.82;3.70;;;20.60;99.90;;;;;;5099477;28;20032;-77
2022/09/14 07:43:28;;;;;;;5.00;3.90;;;20.70;99.90;;;;;;5094028;28;20089;-77
2022/09/14 07:45:54;;;;;;;7.95;4.50;;;20.80;99.90;;;;;;5093400;28;20373;-77
2022/09/14 07:48:20;;;;;;;5.00;3.92;;;21.00;99.90;;;;;;5093427;28;20038;-77
2022/09/14 07:50:46;;;;;;;7.72;3.60;;;21.00;99.90;;;;;;5094375;28;20024;-77
2022/09/14 07:53:13;;;;;;;5.53;3.72;;;21.10;99.90;;;;;;5093517;28;20404;-77
2022/09/14 07:55:39;;;;;;;4.38;3.67;;;21.20;99.90;;;;;;5093994;28;20036;-77
2022/09/14 07:58:06;;;;;;;4.80;4.30;;;21.10;99.90;;;;;;5094111;28;20024;-77
2022/09/14 08:00:31;;;;;;;4.57;3.42;;;21.30;99.90;;;;;;5093701;28;20032;-77
2022/09/14 08:02:57;;;;;;;5.88;3.67;;;21.20;99.90;;;;;;5094122;28;20035;-78
2022/09/14 08:05:24;;;;;;;5.15;3.53;;;21.30;99.90;;;;;;5075517;28;20027;-78
2022/09/14 08:07:55;;;;;;;5.70;3.10;;;21.30;99.90;;;;;;5092881;28;20032;-78
2022/09/14 08:10:21;;;;;;;3.50;3.08;;;21.30;99.90;;;;;;5092996;28;20050;-78
2022/09/14 08:12:53;;;;;;;4.95;2.95;;;21.30;99.90;;;;;;5093510;28;20104;-77
2022/09/14 08:15:21;;;;;;;5.07;3.50;;;21.60;99.90;;;;;;5093596;28;20027;-78
2022/09/14 08:17:48;;;;;;;5.20;3.63;;;22.00;99.90;;;;;;5093626;28;20051;-77
2022/09/14 08:20:15;;;;;;;7.63;4.10;;;22.00;99.90;;;;;;5093398;28;20028;-78
2022/09/14 08:22:42;;;;;;;3.92;2.88;;;22.20;99.90;;;;;;5092894;28;20031;-77
2022/09/14 08:25:08;;;;;;;4.78;3.40;;;21.90;99.90;;;;;;5093320;28;20089;-78
2022/09/14 08:27:34;;;;;;;5.43;3.65;;;21.90;99.90;;;;;;5093046;28;20035;-78
2022/09/14 08:29:59;;;;;;;4.30;2.90;;;22.00;99.90;;;;;;5092907;28;20028;-78
2022/09/14 08:32:25;;;;;;;5.78;3.20;;;21.90;99.90;;;;;;5093034;28;20102;-78
2022/09/14 08:34:51;;;;;;;4.68;3.50;;;22.00;99.90;;;;;;5093445;28;20032;-79
2022/09/14 08:37:17;;;;;;;7.40;3.72;;;22.10;99.90;;;;;;5092772;28;20039;-78
2022/09/14 08:39:42;;;;;;;4.75;3.28;;;22.50;99.90;;;;;;5093111;28;20028;-78
2022/09/14 08:42:16;;;;;;;5.03;3.20;;;23.10;99.90;;;;;;5093150;28;20031;-78
2022/09/14 08:44:48;;;;;;;6.28;3.20;;;23.70;99.90;;;;;;5074859;28;20408;-79
2022/09/14 08:47:33;;;;;;;3.58;2.83;;;23.60;99.90;;;;;;5093180;28;20035;-79
2022/09/14 08:50:11;;;;;;;3.75;2.40;;;23.80;99.90;;;;;;5092357;28;20032;-78
2022/09/14 08:52:41;;;;;;;3.95;2.35;;;23.60;99.90;;;;;;5092631;28;20112;-78
2022/09/14 08:55:34;;;;;;;2.47;1.98;;;23.70;99.90;;;;;;5092636;28;20081;-79
2022/09/14 08:58:08;;;;;;;2.92;2.60;;;23.80;99.90;;;;;;5093208;28;20066;-79
2022/09/14 09:00:56;;;;;;;6.57;3.30;;;23.40;99.90;;;;;;5093030;28;20107;-78
2022/09/14 09:03:25;;;;;;;6.72;2.70;;;23.60;99.90;;;;;;5092726;28;20503;-78
2022/09/14 09:06:17;;;;;;;7.03;2.85;;;23.70;99.90;;;;;;5092066;28;20376;-79
2022/09/14 09:09:11;;;;;;;4.70;2.72;;;24.10;99.90;;;;;;5091747;28;20039;-79
2022/09/14 09:11:45;;;;;;;5.50;2.50;;;24.60;99.90;;;;;;5092391;28;20024;-79
2022/09/14 09:14:23;;;;;;;5.05;2.72;;;24.20;99.90;;;;;;5092405;28;20031;-78
2022/09/14 09:16:52;;;;;;;3.55;2.35;;;24.00;99.90;;;;;;5092312;28;20373;-79
2022/09/14 09:19:23;;;;;;;5.40;2.70;;;24.50;99.90;;;;;;5092532;28;20016;-79
2022/09/14 09:21:50;;;;;;;4.22;2.22;;;25.50;99.90;;;;;;5092167;28;20116;-79
2022/09/14 09:24:24;;;;;;;4.88;2.67;;;25.40;99.90;;;;;;5092190;28;20046;-79
2022/09/14 09:26:50;;;;;;;4.65;2.25;;;28.20;99.90;;;;;;5092197;28;20382;-79
2022/09/14 09:29:17;;;;;;;4.18;2.33;;;28.00;99.90;;;;;;5092498;28;20484;-79
2022/09/14 09:31:47;;;;;;;3.75;2.08;;;27.40;99.90;;;;;;5092094;28;20110;-79
2022/09/14 09:34:14;;;;;;;3.67;2.13;;;28.40;99.90;;;;;;5092057;28;20077;-79
2022/09/14 09:36:45;;;;;;;4.57;2.40;;;25.10;99.90;;;;;;5092260;28;20024;-79
2022/09/14 09:39:11;;;;;;;3.30;2.20;;;27.50;99.90;;;;;;5092592;28;20107;-79
2022/09/14 09:41:42;;;;;;;7.35;2.38;;;30.40;99.90;;;;;;5092056;28;20034;-79
2022/09/14 09:44:09;;;;;;;4.32;2.17;;;29.70;99.90;;;;;;5092162;28;20032;-80
2022/09/14 09:46:59;;;;;;;6.85;2.83;;;31.70;99.90;;;;;;5092067;28;20028;-80
2022/09/14 09:49:34;;;;;;;6.93;2.95;;;33.80;99.90;;;;;;5081883;28;20032;-80
2022/09/14 09:52:16;;;;;;;8.15;2.72;;;29.50;99.90;;;;;;5091985;28;20012;-80
2022/09/14 09:54:53;;;;;;;6.20;2.63;;;26.80;99.90;;;;;;5092410;28;20090;-79
2022/09/14 09:57:31;;;;;;;5.15;2.13;;;28.70;99.90;;;;;;5092172;28;20154;-80
2022/09/14 10:00:21;;;;;;;3.88;2.08;;;31.10;99.90;;;;;;5091948;28;20028;-79
2022/09/14 10:02:47;;;;;;;2.78;2.00;;;30.10;99.90;;;;;;5091642;28;20035;-79
2022/09/14 10:05:16;;;;;;;3.45;2.17;;;28.10;99.90;;;;;;5091993;28;20034;-79
2022/09/14 10:07:48;;;;;;;4.22;2.35;;;27.30;99.90;;;;;;5091671;28;20039;-80
2022/09/14 10:10:15;;;;;;;4.88;2.45;;;30.50;99.90;;;;;;5091836;28;20206;-80
2022/09/14 10:12:50;;;;;;;5.65;2.15;;;30.10;99.90;;;;;;5092207;28;20016;-79
2022/09/14 10:15:28;;;;;;;4.72;2.13;;;31.60;99.90;;;;;;5091858;28;20354;-79
2022/09/14 10:18:12;;;;;;;3.35;2.33;;;29.40;99.90;;;;;;5091388;28;20048;-80
2022/09/14 10:21:04;;;;;;;5.20;2.30;;;30.00;99.90;;;;;;5092004;28;20524;-79
2022/09/14 10:23:36;;;;;;;3.80;1.90;;;30.40;99.90;;;;;;5091466;28;20048;-79
2022/09/14 10:26:13;;;;;;;2.72;1.95;;;31.60;99.90;;;;;;5091983;28;20024;-79
2022/09/14 10:28:47;;;;;;;3.90;2.10;;;30.90;99.90;;;;;;5092111;28;20156;-79
2022/09/14 10:31:18;;;;;;;4.18;2.40;;;30.70;99.90;;;;;;5091144;28;20492;-79
2022/09/14 10:33:58;;;;;;;2.83;1.92;;;30.90;99.90;;;;;;5095027;28;20512;-79
2022/09/14 10:36:31;;;;;;;2.00;1.80;;;30.70;99.90;;;;;;5095384;28;20028;-79
2022/09/14 10:39:19;;;;;;;6.38;2.03;;;33.90;99.90;;;;;;5095319;28;20047;-79
2022/09/14 10:42:10;;;;;;;3.00;1.95;;;35.00;99.90;;;;;;5095402;28;20027;-80
2022/09/14 10:45:01;;;;;;;3.42;2.10;;;35.10;99.90;;;;;;5095675;28;20107;-79
2022/09/14 10:47:42;;;;;;;3.25;1.95;;;37.10;99.90;;;;;;5094864;28;20046;-79
2022/09/14 10:50:32;;;;;;;3.67;2.17;;;39.50;99.90;;;;;;5095074;28;20020;-79
2022/09/14 10:53:28;;;;;;;2.80;2.00;;;40.00;99.90;;;;;;5095040;28;20032;-79
2022/09/14 10:56:09;;;;;;;3.08;2.30;;;39.80;99.90;;;;;;5095226;28;20027;-79
2022/09/14 10:59:06;;;;;;;3.40;2.30;;;37.60;99.90;;;;;;5095079;28;20020;-79
2022/09/14 11:02:13;;;;;;;4.60;2.22;;;37.10;99.90;;;;;;5093300;28;20020;-80
2022/09/14 11:05:03;;;;;;;3.38;2.40;;;35.10;99.90;;;;;;5084089;28;20055;-79
2022/09/14 11:07:48;;;;;;;3.65;2.47;;;32.00;99.90;;;;;;5095238;28;20032;-79
2022/09/14 11:10:32;;;;;;;3.90;2.40;;;31.30;99.90;;;;;;5095069;28;20069;-79
2022/09/14 11:13:01;;;;;;;3.95;2.45;;;32.10;99.90;;;;;;5094938;28;20031;-79
2022/09/14 11:15:59;;;;;;;2.40;2.20;;;35.20;99.90;;;;;;5094120;28;20333;-79
2022/09/14 11:18:40;;;;;;;4.07;2.35;;;36.60;99.90;;;;;;5094496;28;20040;-79
2022/09/14 11:21:28;;;;;;;2.35;2.13;;;36.00;99.90;;;;;;5094448;28;20485;-79
2022/09/14 11:24:04;;;;;;;2.90;2.00;;;34.40;99.90;;;;;;5094353;28;20503;-79
2022/09/14 11:26:41;;;;;;;4.30;2.45;;;33.70;99.90;;;;;;5094263;28;20044;-76
2022/09/14 11:29:27;;;;;;;2.63;2.42;;;33.10;99.90;;;;;;5094084;28;20102;-78
2022/09/14 11:32:33;;;;;;;2.92;2.50;;;32.50;99.90;;;;;;5073389;28;20041;-80
2022/09/14 11:35:16;;;;;;;3.58;2.33;;;31.10;99.90;;;;;;5060028;28;20404;-80
2022/09/14 11:37:57;;;;;;;3.85;2.47;;;31.40;99.90;;;;;;5074177;28;20385;-79
2022/09/14 11:40:44;;;;;;;5.45;2.33;;;31.50;99.90;;;;;;5073945;28;20047;-78
2022/09/14 11:43:48;;;;;;;2.50;2.22;;;30.10;99.90;;;;;;5073734;28;20037;-78
2022/09/14 11:46:23;;;;;;;2.60;2.30;;;31.10;99.90;;;;;;5073793;28;20524;-78
2022/09/14 11:49:10;;;;;;;3.05;2.78;;;32.10;99.90;;;;;;5073988;28;20020;-79
2022/09/14 11:51:47;;;;;;;3.85;2.53;;;32.50;99.90;;;;;;5073810;28;20025;-78
2022/09/14 11:54:16;;;;;;;2.72;2.50;;;33.60;99.90;;;;;;5073792;28;20024;-78
2022/09/14 11:56:45;;;;;;;4.50;2.70;;;31.10;99.90;;;;;;5073702;28;20035;-79
2022/09/14 11:59:35;;;;;;;4.68;2.40;;;33.20;99.90;;;;;;5073483;28;20025;-79
2022/09/14 12:02:29;;;;;;;4.22;2.47;;;33.10;99.90;;;;;;5056421;28;20377;-78
2022/09/14 12:05:03;;;;;;;3.88;2.78;;;34.60;99.90;;;;;;5073533;28;20020;-79
2022/09/14 12:07:38;;;;;;;3.97;2.42;;;35.90;99.90;;;;;;5073413;28;20040;-79
2022/09/14 12:10:16;;;;;;;4.20;1.90;;;37.80;99.90;;;;;;5073429;28;20082;-79
2022/09/14 12:12:55;;;;;;;2.90;2.13;;;36.20;99.90;;;;;;5072778;28;20081;-79
2022/09/14 12:15:24;;;;;;;3.85;2.20;;;35.90;99.90;;;;;;5073701;28;20099;-79
2022/09/14 12:18:05;;;;;;;4.00;2.30;;;34.80;99.90;;;;;;5093715;28;20032;-79
2022/09/14 12:20:40;;;;;;;6.10;2.72;;;36.00;99.90;;;;;;5093666;28;20488;-79
2022/09/14 12:23:25;;;;;;;5.05;2.30;;;36.90;99.90;;;;;;5093286;28;20131;-79
2022/09/14 12:26:09;;;;;;;4.95;2.20;;;32.20;99.90;;;;;;5074859;28;20066;-78
2022/09/14 12:28:35;;;;;;;4.63;2.10;;;35.70;99.90;;;;;;5092858;28;20484;-79
2022/09/14 12:31:03;;;;;;;5.40;2.05;;;35.60;99.90;;;;;;5092895;28;20050;-79
2022/09/14 12:33:34;;;;;;;3.70;2.08;;;34.20;99.90;;;;;;5092856;28;20139;-79
2022/09/14 12:36:11;;;;;;;4.97;2.15;;;34.40;99.90;;;;;;5093044;28;20028;-79
2022/09/14 12:38:36;;;;;;;6.25;2.28;;;36.30;99.90;;;;;;5074972;28;20484;-79
2022/09/14 12:41:11;;;;;;;5.15;2.20;;;36.70;99.90;;;;;;5092960;28;20035;-79
2022/09/14 12:43:40;;;;;;;6.80;2.40;;;35.50;99.90;;;;;;5093069;28;20106;-78
2022/09/14 12:46:20;;;;;;;6.53;2.08;;;35.30;99.90;;;;;;5092872;28;20484;-79
2022/09/14 12:48:46;;;;;;;5.75;2.47;;;35.50;99.90;;;;;;5092965;28;20024;-79
2022/09/14 12:51:41;;;;;;;5.22;2.45;;;33.20;99.90;;;;;;5092765;28;20490;-79
2022/09/14 12:54:06;;;;;;;5.65;2.17;;;34.70;99.90;;;;;;5092702;28;20039;-78
2022/09/14 12:56:56;;;;;;;7.07;2.20;;;35.00;99.90;;;;;;5092378;28;20019;-78
2022/09/14 12:59:38;;;;;;;4.93;2.63;;;35.60;99.90;;;;;;5092738;28;20028;-79
2022/09/14 13:02:42;;;;;;;4.15;2.08;;;34.30;99.90;;;;;;5092458;28;20078;-79
2022/09/14 13:05:14;;;;;;;8.82;2.72;;;36.20;99.90;;;;;;5092863;28;20035;-79
2022/09/14 13:07:41;;;;;;;5.28;2.42;;;34.70;99.90;;;;;;5092511;28;20134;-79
2022/09/14 13:10:15;;;;;;;5.45;2.10;;;35.20;99.90;;;;;;5092413;28;20096;-79
2022/09/14 13:12:44;;;;;;;6.10;2.13;;;37.10;99.90;;;;;;5092397;28;20116;-79